Bad Hofgastein, Austria
Current Conditions -  °F | °C
As of 8:50 AM on Sunday 21 Dec 2014 (Local Time) from LOWS Reporting Station
Light Rain Light Rain  
Wind Chill: 34°   Ceiling: 2800
Heat Index: 39°   Visibility: 6mi
Dew Point: 34°   Wind: 8mph
Humidity: 81%   Direction: 320°NW
Pressure: 30.48"   Gusts: NA
Location:  47.17°N, 13.1°E
Report Text: LOWS 210650Z 32007KT 290V350 9999 -RA FEW008 SCT020 BKN028 04/01 Q1032 NOSIG
Loading
Personal Weather Stations






























Interactive Weather Map New forecast layout! Learn more

10-Day Weather Forecast

Advertisements
Track Severe Weather on mobile